ΕΜΥ, Εθνική Μετεωρολογική Υπηρεσία - Δελτία Καιρού, Προγνώσεις

ΑΕΡΟΝΑΥΤΙΛΙΑ

GREEK AIRPORTS CODES

TAF LGAV 052300Z 0600/0624 20015KT 9999 FEW020 SCT070 BECMG 0604/0606 20015G25KT TEMPO 0614/0621 20020G30KT PROB40 TEMPO 0617/0624 5000 RA FEW018TCU BKN020 BKN070 PROB40 TEMPO 0619/0624 4000 TSRA SCT012 FEW018CB BKN020 BKN070=

EUROPEAN AIRPORTS CODES

LFPO 060000Z 32011KT 9999 SCT016 BKN040 BKN053 05/04 Q1011NOSIG=